sensor_id;sensor_type;location;lat;lon;timestamp;temperature;humidity
22065;DHT22;11197;53.110;8.468;2022-10-31T00:00:19;14.30;99.90
22065;DHT22;11197;53.110;8.468;2022-10-31T00:02:53;14.20;99.90
22065;DHT22;11197;53.110;8.468;2022-10-31T00:05:19;14.20;99.90
22065;DHT22;11197;53.110;8.468;2022-10-31T00:07:45;14.20;99.90
22065;DHT22;11197;53.110;8.468;2022-10-31T00:10:11;14.20;99.90
22065;DHT22;11197;53.110;8.468;2022-10-31T00:12:37;14.20;99.90
22065;DHT22;11197;53.110;8.468;2022-10-31T00:15:03;14.20;99.90
22065;DHT22;11197;53.110;8.468;2022-10-31T00:17:29;14.10;99.90
22065;DHT22;11197;53.110;8.468;2022-10-31T00:19:54;14.10;99.90
22065;DHT22;11197;53.110;8.468;2022-10-31T00:22:20;14.10;99.90
22065;DHT22;11197;53.110;8.468;2022-10-31T00:24:46;14.10;99.90
22065;DHT22;11197;53.110;8.468;2022-10-31T00:27:12;14.00;99.90
22065;DHT22;11197;53.110;8.468;2022-10-31T00:29:37;14.00;99.90
22065;DHT22;11197;53.110;8.468;2022-10-31T00:32:04;14.00;99.90
22065;DHT22;11197;53.110;8.468;2022-10-31T00:34:30;14.00;99.90
22065;DHT22;11197;53.110;8.468;2022-10-31T00:36:59;14.00;99.90
22065;DHT22;11197;53.110;8.468;2022-10-31T00:39:25;13.90;99.90
22065;DHT22;11197;53.110;8.468;2022-10-31T00:41:51;13.90;99.90
22065;DHT22;11197;53.110;8.468;2022-10-31T00:44:19;13.90;99.90
22065;DHT22;11197;53.110;8.468;2022-10-31T00:46:45;13.90;99.90
22065;DHT22;11197;53.110;8.468;2022-10-31T00:49:11;13.90;99.90
22065;DHT22;11197;53.110;8.468;2022-10-31T00:51:37;13.80;99.90
22065;DHT22;11197;53.110;8.468;2022-10-31T00:54:03;13.80;99.90
22065;DHT22;11197;53.110;8.468;2022-10-31T00:56:29;13.80;99.90
22065;DHT22;11197;53.110;8.468;2022-10-31T00:58:57;13.80;99.90
22065;DHT22;11197;53.110;8.468;2022-10-31T01:01:23;13.80;99.90
22065;DHT22;11197;53.110;8.468;2022-10-31T01:03:49;13.80;99.90
22065;DHT22;11197;53.110;8.468;2022-10-31T01:06:15;13.70;99.90
22065;DHT22;11197;53.110;8.468;2022-10-31T01:08:41;13.80;99.90
22065;DHT22;11197;53.110;8.468;2022-10-31T01:11:18;13.80;99.90
22065;DHT22;11197;53.110;8.468;2022-10-31T01:13:45;13.70;99.90
22065;DHT22;11197;53.110;8.468;2022-10-31T01:16:12;13.70;99.90
22065;DHT22;11197;53.110;8.468;2022-10-31T01:18:38;13.70;99.90
22065;DHT22;11197;53.110;8.468;2022-10-31T01:21:05;13.70;99.90
22065;DHT22;11197;53.110;8.468;2022-10-31T01:23:31;13.60;99.90
22065;DHT22;11197;53.110;8.468;2022-10-31T01:28:26;13.60;99.90
22065;DHT22;11197;53.110;8.468;2022-10-31T01:30:52;13.60;99.90
22065;DHT22;11197;53.110;8.468;2022-10-31T01:33:18;13.50;99.90
22065;DHT22;11197;53.110;8.468;2022-10-31T01:35:44;13.50;99.90
22065;DHT22;11197;53.110;8.468;2022-10-31T01:38:09;13.50;99.90
22065;DHT22;11197;53.110;8.468;2022-10-31T01:40:35;13.50;99.90
22065;DHT22;11197;53.110;8.468;2022-10-31T01:43:01;13.50;99.90
22065;DHT22;11197;53.110;8.468;2022-10-31T01:45:28;13.50;99.90
22065;DHT22;11197;53.110;8.468;2022-10-31T01:47:54;13.50;99.90
22065;DHT22;11197;53.110;8.468;2022-10-31T01:50:26;13.40;99.90
22065;DHT22;11197;53.110;8.468;2022-10-31T01:52:53;13.40;99.90
22065;DHT22;11197;53.110;8.468;2022-10-31T01:55:29;13.40;99.90
22065;DHT22;11197;53.110;8.468;2022-10-31T01:57:57;13.40;99.90
22065;DHT22;11197;53.110;8.468;2022-10-31T02:00:24;13.40;99.90
22065;DHT22;11197;53.110;8.468;2022-10-31T02:02:50;13.40;99.90
22065;DHT22;11197;53.110;8.468;2022-10-31T02:05:17;13.40;99.90
22065;DHT22;11197;53.110;8.468;2022-10-31T02:08:02;13.30;99.90
22065;DHT22;11197;53.110;8.468;2022-10-31T02:10:33;13.40;99.90
22065;DHT22;11197;53.110;8.468;2022-10-31T02:13:01;13.40;99.90
22065;DHT22;11197;53.110;8.468;2022-10-31T02:15:27;13.30;99.90
22065;DHT22;11197;53.110;8.468;2022-10-31T02:17:54;13.30;99.90
22065;DHT22;11197;53.110;8.468;2022-10-31T02:20:20;13.30;99.90
22065;DHT22;11197;53.110;8.468;2022-10-31T02:30:54;13.30;99.90
22065;DHT22;11197;53.110;8.468;2022-10-31T02:33:30;13.30;99.90
22065;DHT22;11197;53.110;8.468;2022-10-31T02:38:38;13.20;99.90
22065;DHT22;11197;53.110;8.468;2022-10-31T02:43:55;13.20;99.90
22065;DHT22;11197;53.110;8.468;2022-10-31T02:49:00;13.10;99.90
22065;DHT22;11197;53.110;8.468;2022-10-31T02:51:28;13.10;99.90
22065;DHT22;11197;53.110;8.468;2022-10-31T02:53:54;13.10;99.90
22065;DHT22;11197;53.110;8.468;2022-10-31T02:56:19;13.10;99.90
22065;DHT22;11197;53.110;8.468;2022-10-31T02:58:47;13.10;99.90
22065;DHT22;11197;53.110;8.468;2022-10-31T03:04:06;13.00;99.90
22065;DHT22;11197;53.110;8.468;2022-10-31T03:09:41;13.00;99.90
22065;DHT22;11197;53.110;8.468;2022-10-31T03:12:16;13.00;99.90
22065;DHT22;11197;53.110;8.468;2022-10-31T03:17:18;12.90;99.90
22065;DHT22;11197;53.110;8.468;2022-10-31T03:19:47;12.90;99.90
22065;DHT22;11197;53.110;8.468;2022-10-31T03:22:22;12.90;99.90
22065;DHT22;11197;53.110;8.468;2022-10-31T03:24:49;12.90;99.90
22065;DHT22;11197;53.110;8.468;2022-10-31T03:27:20;12.90;99.90
22065;DHT22;11197;53.110;8.468;2022-10-31T03:29:49;12.80;99.90
22065;DHT22;11197;53.110;8.468;2022-10-31T03:32:18;12.80;99.90
22065;DHT22;11197;53.110;8.468;2022-10-31T03:34:45;12.80;99.90
22065;DHT22;11197;53.110;8.468;2022-10-31T03:37:15;12.80;99.90
22065;DHT22;11197;53.110;8.468;2022-10-31T03:39:42;12.80;99.90
22065;DHT22;11197;53.110;8.468;2022-10-31T03:42:10;12.70;99.90
22065;DHT22;11197;53.110;8.468;2022-10-31T03:44:37;12.70;99.90
22065;DHT22;11197;53.110;8.468;2022-10-31T03:47:03;12.70;99.90
22065;DHT22;11197;53.110;8.468;2022-10-31T03:49:30;12.70;99.90
22065;DHT22;11197;53.110;8.468;2022-10-31T03:54:46;12.60;99.90
22065;DHT22;11197;53.110;8.468;2022-10-31T03:57:21;12.60;99.90
22065;DHT22;11197;53.110;8.468;2022-10-31T03:59:58;12.60;99.90
22065;DHT22;11197;53.110;8.468;2022-10-31T04:02:26;12.60;99.90
22065;DHT22;11197;53.110;8.468;2022-10-31T04:04:54;12.60;99.90
22065;DHT22;11197;53.110;8.468;2022-10-31T04:07:21;12.60;99.90
22065;DHT22;11197;53.110;8.468;2022-10-31T04:09:49;12.60;99.90
22065;DHT22;11197;53.110;8.468;2022-10-31T04:12:18;12.60;99.90
22065;DHT22;11197;53.110;8.468;2022-10-31T04:15:04;12.60;99.90
22065;DHT22;11197;53.110;8.468;2022-10-31T04:17:33;12.50;99.90
22065;DHT22;11197;53.110;8.468;2022-10-31T04:20:02;12.60;99.90
22065;DHT22;11197;53.110;8.468;2022-10-31T04:22:28;12.50;99.90
22065;DHT22;11197;53.110;8.468;2022-10-31T04:24:54;12.50;99.90
22065;DHT22;11197;53.110;8.468;2022-10-31T04:27:20;12.50;99.90
22065;DHT22;11197;53.110;8.468;2022-10-31T04:29:46;12.50;99.90
22065;DHT22;11197;53.110;8.468;2022-10-31T04:32:12;12.50;99.90
22065;DHT22;11197;53.110;8.468;2022-10-31T04:34:38;12.40;99.90
22065;DHT22;11197;53.110;8.468;2022-10-31T04:37:04;12.40;99.90
22065;DHT22;11197;53.110;8.468;2022-10-31T04:39:31;12.40;99.90
22065;DHT22;11197;53.110;8.468;2022-10-31T04:42:20;12.40;99.90
22065;DHT22;11197;53.110;8.468;2022-10-31T04:44:46;12.40;99.90
22065;DHT22;11197;53.110;8.468;2022-10-31T04:47:13;12.40;99.90
22065;DHT22;11197;53.110;8.468;2022-10-31T04:49:39;12.40;99.90
22065;DHT22;11197;53.110;8.468;2022-10-31T04:52:05;12.40;99.90
22065;DHT22;11197;53.110;8.468;2022-10-31T04:54:32;12.30;99.90
22065;DHT22;11197;53.110;8.468;2022-10-31T04:57:16;12.40;99.90
22065;DHT22;11197;53.110;8.468;2022-10-31T04:59:43;12.30;99.90
22065;DHT22;11197;53.110;8.468;2022-10-31T05:02:10;12.30;99.90
22065;DHT22;11197;53.110;8.468;2022-10-31T05:04:47;12.30;99.90
22065;DHT22;11197;53.110;8.468;2022-10-31T05:07:13;12.30;99.90
22065;DHT22;11197;53.110;8.468;2022-10-31T05:09:38;12.30;99.90
22065;DHT22;11197;53.110;8.468;2022-10-31T05:12:04;12.30;99.90
22065;DHT22;11197;53.110;8.468;2022-10-31T05:14:59;12.30;99.90
22065;DHT22;11197;53.110;8.468;2022-10-31T05:17:43;12.30;99.90
22065;DHT22;11197;53.110;8.468;2022-10-31T05:20:29;12.30;99.90
22065;DHT22;11197;53.110;8.468;2022-10-31T05:23:11;12.20;99.90
22065;DHT22;11197;53.110;8.468;2022-10-31T05:25:39;12.20;99.90
22065;DHT22;11197;53.110;8.468;2022-10-31T05:28:06;12.20;99.90
22065;DHT22;11197;53.110;8.468;2022-10-31T05:30:32;12.20;99.90
22065;DHT22;11197;53.110;8.468;2022-10-31T05:32:59;12.20;99.90
22065;DHT22;11197;53.110;8.468;2022-10-31T05:35:43;12.20;99.90
22065;DHT22;11197;53.110;8.468;2022-10-31T05:38:30;12.20;99.90
22065;DHT22;11197;53.110;8.468;2022-10-31T05:41:01;12.20;99.90
22065;DHT22;11197;53.110;8.468;2022-10-31T05:43:29;12.10;99.90
22065;DHT22;11197;53.110;8.468;2022-10-31T05:45:55;12.10;99.90
22065;DHT22;11197;53.110;8.468;2022-10-31T05:48:41;12.10;99.90
22065;DHT22;11197;53.110;8.468;2022-10-31T05:51:26;12.10;99.90
22065;DHT22;11197;53.110;8.468;2022-10-31T05:53:51;12.10;99.90
22065;DHT22;11197;53.110;8.468;2022-10-31T05:56:18;12.10;99.90
22065;DHT22;11197;53.110;8.468;2022-10-31T05:58:43;12.10;99.90
22065;DHT22;11197;53.110;8.468;2022-10-31T06:01:09;12.10;99.90
22065;DHT22;11197;53.110;8.468;2022-10-31T06:03:37;12.00;99.90
22065;DHT22;11197;53.110;8.468;2022-10-31T06:06:05;12.00;99.90
22065;DHT22;11197;53.110;8.468;2022-10-31T06:08:35;12.00;99.90
22065;DHT22;11197;53.110;8.468;2022-10-31T06:11:05;12.00;99.90
22065;DHT22;11197;53.110;8.468;2022-10-31T06:13:49;12.00;99.90
22065;DHT22;11197;53.110;8.468;2022-10-31T06:16:21;12.00;99.90
22065;DHT22;11197;53.110;8.468;2022-10-31T06:18:47;12.00;99.90
22065;DHT22;11197;53.110;8.468;2022-10-31T06:21:13;11.90;99.90
22065;DHT22;11197;53.110;8.468;2022-10-31T06:23:38;12.00;99.90
22065;DHT22;11197;53.110;8.468;2022-10-31T06:26:33;12.00;99.90
22065;DHT22;11197;53.110;8.468;2022-10-31T06:28:59;11.90;99.90
22065;DHT22;11197;53.110;8.468;2022-10-31T06:31:45;11.90;99.90
22065;DHT22;11197;53.110;8.468;2022-10-31T06:34:11;11.90;99.90
22065;DHT22;11197;53.110;8.468;2022-10-31T06:36:37;11.90;99.90
22065;DHT22;11197;53.110;8.468;2022-10-31T06:39:03;11.90;99.90
22065;DHT22;11197;53.110;8.468;2022-10-31T06:41:29;11.80;99.90
22065;DHT22;11197;53.110;8.468;2022-10-31T06:43:56;11.90;99.90
22065;DHT22;11197;53.110;8.468;2022-10-31T06:46:48;11.80;99.90
22065;DHT22;11197;53.110;8.468;2022-10-31T06:49:34;11.80;99.90
22065;DHT22;11197;53.110;8.468;2022-10-31T06:52:02;11.80;99.90
22065;DHT22;11197;53.110;8.468;2022-10-31T06:54:28;11.80;99.90
22065;DHT22;11197;53.110;8.468;2022-10-31T06:56:54;11.80;99.90
22065;DHT22;11197;53.110;8.468;2022-10-31T06:59:20;11.80;99.90
22065;DHT22;11197;53.110;8.468;2022-10-31T07:02:22;11.80;99.90
22065;DHT22;11197;53.110;8.468;2022-10-31T07:04:49;11.70;99.90
22065;DHT22;11197;53.110;8.468;2022-10-31T07:07:17;11.80;99.90
22065;DHT22;11197;53.110;8.468;2022-10-31T07:09:44;11.80;99.90
22065;DHT22;11197;53.110;8.468;2022-10-31T07:12:13;11.70;99.90
22065;DHT22;11197;53.110;8.468;2022-10-31T07:14:47;11.80;99.90
22065;DHT22;11197;53.110;8.468;2022-10-31T07:17:13;11.80;99.90
22065;DHT22;11197;53.110;8.468;2022-10-31T07:19:42;11.80;99.90
22065;DHT22;11197;53.110;8.468;2022-10-31T07:22:09;11.70;99.90
22065;DHT22;11197;53.110;8.468;2022-10-31T07:24:37;11.70;99.90
22065;DHT22;11197;53.110;8.468;2022-10-31T07:27:26;11.80;99.90
22065;DHT22;11197;53.110;8.468;2022-10-31T07:29:52;11.70;99.90
22065;DHT22;11197;53.110;8.468;2022-10-31T07:32:18;11.70;99.90
22065;DHT22;11197;53.110;8.468;2022-10-31T07:34:52;11.70;99.90
22065;DHT22;11197;53.110;8.468;2022-10-31T07:37:24;11.70;99.90
22065;DHT22;11197;53.110;8.468;2022-10-31T07:39:54;11.70;99.90
22065;DHT22;11197;53.110;8.468;2022-10-31T07:42:20;11.70;99.90
22065;DHT22;11197;53.110;8.468;2022-10-31T07:44:47;11.70;99.90
22065;DHT22;11197;53.110;8.468;2022-10-31T07:47:39;11.80;99.90
22065;DHT22;11197;53.110;8.468;2022-10-31T07:50:26;11.80;99.90
22065;DHT22;11197;53.110;8.468;2022-10-31T07:53:21;11.80;99.90
22065;DHT22;11197;53.110;8.468;2022-10-31T07:55:58;11.80;99.90
22065;DHT22;11197;53.110;8.468;2022-10-31T07:58:28;11.80;99.90
22065;DHT22;11197;53.110;8.468;2022-10-31T08:00:57;11.80;99.90
22065;DHT22;11197;53.110;8.468;2022-10-31T08:03:32;11.80;99.90
22065;DHT22;11197;53.110;8.468;2022-10-31T08:06:02;11.80;99.90
22065;DHT22;11197;53.110;8.468;2022-10-31T08:08:48;11.80;99.90
22065;DHT22;11197;53.110;8.468;2022-10-31T08:11:14;11.80;99.90
22065;DHT22;11197;53.110;8.468;2022-10-31T08:13:41;11.80;99.90
22065;DHT22;11197;53.110;8.468;2022-10-31T08:16:11;11.80;99.90
22065;DHT22;11197;53.110;8.468;2022-10-31T08:18:45;11.80;99.90
22065;DHT22;11197;53.110;8.468;2022-10-31T08:21:13;11.80;99.90
22065;DHT22;11197;53.110;8.468;2022-10-31T08:23:39;11.80;99.90
22065;DHT22;11197;53.110;8.468;2022-10-31T08:26:07;11.80;99.90
22065;DHT22;11197;53.110;8.468;2022-10-31T08:28:33;11.80;99.90
22065;DHT22;11197;53.110;8.468;2022-10-31T08:30:59;11.80;99.90
22065;DHT22;11197;53.110;8.468;2022-10-31T08:33:40;11.80;99.90
22065;DHT22;11197;53.110;8.468;2022-10-31T08:36:19;11.80;99.90
22065;DHT22;11197;53.110;8.468;2022-10-31T08:38:51;11.80;99.90
22065;DHT22;11197;53.110;8.468;2022-10-31T08:41:17;11.80;99.90
22065;DHT22;11197;53.110;8.468;2022-10-31T08:43:43;11.90;99.90
22065;DHT22;11197;53.110;8.468;2022-10-31T08:46:10;11.90;99.90
22065;DHT22;11197;53.110;8.468;2022-10-31T08:48:38;11.90;99.90
22065;DHT22;11197;53.110;8.468;2022-10-31T08:51:05;11.90;99.90
22065;DHT22;11197;53.110;8.468;2022-10-31T08:53:32;11.90;99.90
22065;DHT22;11197;53.110;8.468;2022-10-31T08:56:23;12.30;99.90
22065;DHT22;11197;53.110;8.468;2022-10-31T08:58:52;12.90;99.90
22065;DHT22;11197;53.110;8.468;2022-10-31T09:01:27;13.10;99.90
22065;DHT22;11197;53.110;8.468;2022-10-31T09:03:53;13.10;99.90
22065;DHT22;11197;53.110;8.468;2022-10-31T09:06:19;13.10;99.90
22065;DHT22;11197;53.110;8.468;2022-10-31T09:08:47;13.10;99.90
22065;DHT22;11197;53.110;8.468;2022-10-31T09:11:14;13.00;99.90
22065;DHT22;11197;53.110;8.468;2022-10-31T09:13:59;12.90;99.90
22065;DHT22;11197;53.110;8.468;2022-10-31T09:16:44;12.80;99.90
22065;DHT22;11197;53.110;8.468;2022-10-31T09:19:21;12.70;99.90
22065;DHT22;11197;53.110;8.468;2022-10-31T09:21:47;12.60;99.90
22065;DHT22;11197;53.110;8.468;2022-10-31T09:24:14;12.60;99.90
22065;DHT22;11197;53.110;8.468;2022-10-31T09:26:49;12.50;99.90
22065;DHT22;11197;53.110;8.468;2022-10-31T09:29:25;12.50;99.90
22065;DHT22;11197;53.110;8.468;2022-10-31T09:31:56;12.50;99.90
22065;DHT22;11197;53.110;8.468;2022-10-31T09:34:28;12.40;99.90
22065;DHT22;11197;53.110;8.468;2022-10-31T09:37:09;12.40;99.90
22065;DHT22;11197;53.110;8.468;2022-10-31T09:39:35;12.40;99.90
22065;DHT22;11197;53.110;8.468;2022-10-31T09:50:27;12.40;99.90
22065;DHT22;11197;53.110;8.468;2022-10-31T09:53:03;12.40;99.90
22065;DHT22;11197;53.110;8.468;2022-10-31T09:55:41;12.40;99.90
22065;DHT22;11197;53.110;8.468;2022-10-31T09:58:13;12.40;99.90
22065;DHT22;11197;53.110;8.468;2022-10-31T10:00:40;12.40;99.90
22065;DHT22;11197;53.110;8.468;2022-10-31T10:05:38;12.50;99.90
22065;DHT22;11197;53.110;8.468;2022-10-31T10:08:15;12.50;99.90
22065;DHT22;11197;53.110;8.468;2022-10-31T10:14:00;12.50;99.90
22065;DHT22;11197;53.110;8.468;2022-10-31T10:16:47;12.60;99.90
22065;DHT22;11197;53.110;8.468;2022-10-31T10:21:56;12.60;99.90
22065;DHT22;11197;53.110;8.468;2022-10-31T10:29:51;12.60;99.90
22065;DHT22;11197;53.110;8.468;2022-10-31T10:32:20;12.70;99.90
22065;DHT22;11197;53.110;8.468;2022-10-31T10:34:49;12.70;99.90
22065;DHT22;11197;53.110;8.468;2022-10-31T10:37:30;12.70;99.90
22065;DHT22;11197;53.110;8.468;2022-10-31T10:40:01;12.70;99.90
22065;DHT22;11197;53.110;8.468;2022-10-31T10:42:32;12.70;99.90
22065;DHT22;11197;53.110;8.468;2022-10-31T10:45:18;12.80;99.90
22065;DHT22;11197;53.110;8.468;2022-10-31T10:50:52;12.80;99.90
22065;DHT22;11197;53.110;8.468;2022-10-31T10:53:37;12.80;99.90
22065;DHT22;11197;53.110;8.468;2022-10-31T10:56:16;12.80;99.90
22065;DHT22;11197;53.110;8.468;2022-10-31T10:58:42;12.90;99.90
22065;DHT22;11197;53.110;8.468;2022-10-31T11:01:15;12.90;99.90
22065;DHT22;11197;53.110;8.468;2022-10-31T11:03:41;12.90;99.90
22065;DHT22;11197;53.110;8.468;2022-10-31T11:06:19;13.00;99.90
22065;DHT22;11197;53.110;8.468;2022-10-31T11:08:48;13.10;99.90
22065;DHT22;11197;53.110;8.468;2022-10-31T11:11:28;13.10;99.90
22065;DHT22;11197;53.110;8.468;2022-10-31T11:14:00;13.10;99.90
22065;DHT22;11197;53.110;8.468;2022-10-31T11:16:30;13.20;99.90
22065;DHT22;11197;53.110;8.468;2022-10-31T11:21:37;13.20;99.90
22065;DHT22;11197;53.110;8.468;2022-10-31T11:26:30;13.30;99.90
22065;DHT22;11197;53.110;8.468;2022-10-31T11:28:59;13.40;99.90
22065;DHT22;11197;53.110;8.468;2022-10-31T11:31:26;13.40;99.90
22065;DHT22;11197;53.110;8.468;2022-10-31T11:34:03;13.40;99.90
22065;DHT22;11197;53.110;8.468;2022-10-31T11:36:31;13.50;99.90
22065;DHT22;11197;53.110;8.468;2022-10-31T11:38:58;13.50;99.90
22065;DHT22;11197;53.110;8.468;2022-10-31T11:41:28;13.50;99.90
22065;DHT22;11197;53.110;8.468;2022-10-31T11:48:54;13.70;99.90
22065;DHT22;11197;53.110;8.468;2022-10-31T11:51:27;13.70;99.90
22065;DHT22;11197;53.110;8.468;2022-10-31T11:53:56;13.80;99.90
22065;DHT22;11197;53.110;8.468;2022-10-31T11:56:23;13.80;99.90
22065;DHT22;11197;53.110;8.468;2022-10-31T12:01:46;13.90;99.90
22065;DHT22;11197;53.110;8.468;2022-10-31T12:04:13;13.90;99.90
22065;DHT22;11197;53.110;8.468;2022-10-31T12:06:43;14.00;99.90
22065;DHT22;11197;53.110;8.468;2022-10-31T12:17:16;14.20;99.90
22065;DHT22;11197;53.110;8.468;2022-10-31T12:22:33;14.20;99.90
22065;DHT22;11197;53.110;8.468;2022-10-31T12:25:08;14.20;99.90
22065;DHT22;11197;53.110;8.468;2022-10-31T12:27:55;14.30;99.90
22065;DHT22;11197;53.110;8.468;2022-10-31T12:35:39;14.30;99.90
22065;DHT22;11197;53.110;8.468;2022-10-31T12:40:36;14.30;99.90
22065;DHT22;11197;53.110;8.468;2022-10-31T12:53:15;14.50;99.90
22065;DHT22;11197;53.110;8.468;2022-10-31T12:58:38;14.60;99.90
22065;DHT22;11197;53.110;8.468;2022-10-31T13:01:11;14.60;99.90
22065;DHT22;11197;53.110;8.468;2022-10-31T13:03:41;14.60;99.90
22065;DHT22;11197;53.110;8.468;2022-10-31T13:06:10;14.60;99.90
22065;DHT22;11197;53.110;8.468;2022-10-31T13:11:13;14.70;99.90
22065;DHT22;11197;53.110;8.468;2022-10-31T13:13:41;14.70;99.90
22065;DHT22;11197;53.110;8.468;2022-10-31T13:16:13;14.70;99.90
22065;DHT22;11197;53.110;8.468;2022-10-31T13:18:42;14.70;99.90
22065;DHT22;11197;53.110;8.468;2022-10-31T13:21:11;14.70;99.90
22065;DHT22;11197;53.110;8.468;2022-10-31T13:23:39;14.70;99.90
22065;DHT22;11197;53.110;8.468;2022-10-31T13:26:10;14.80;99.90
22065;DHT22;11197;53.110;8.468;2022-10-31T13:28:43;14.80;99.90
22065;DHT22;11197;53.110;8.468;2022-10-31T13:31:11;14.80;99.90
22065;DHT22;11197;53.110;8.468;2022-10-31T13:46:22;15.10;99.90
22065;DHT22;11197;53.110;8.468;2022-10-31T13:48:48;15.20;99.90
22065;DHT22;11197;53.110;8.468;2022-10-31T13:51:23;15.20;99.90
22065;DHT22;11197;53.110;8.468;2022-10-31T13:56:33;15.10;99.90
22065;DHT22;11197;53.110;8.468;2022-10-31T13:59:00;15.10;99.90
22065;DHT22;11197;53.110;8.468;2022-10-31T14:01:26;15.00;99.90
22065;DHT22;11197;53.110;8.468;2022-10-31T14:06:39;14.90;99.90
22065;DHT22;11197;53.110;8.468;2022-10-31T14:09:14;14.90;99.90
22065;DHT22;11197;53.110;8.468;2022-10-31T14:11:45;14.90;99.90
22065;DHT22;11197;53.110;8.468;2022-10-31T14:14:12;14.90;99.90
22065;DHT22;11197;53.110;8.468;2022-10-31T14:16:38;14.90;99.90
22065;DHT22;11197;53.110;8.468;2022-10-31T14:19:16;14.80;99.90
22065;DHT22;11197;53.110;8.468;2022-10-31T14:21:44;14.80;99.90
22065;DHT22;11197;53.110;8.468;2022-10-31T14:31:43;14.80;99.90
22065;DHT22;11197;53.110;8.468;2022-10-31T14:34:30;14.80;99.90
22065;DHT22;11197;53.110;8.468;2022-10-31T14:39:29;14.80;99.90
22065;DHT22;11197;53.110;8.468;2022-10-31T14:42:17;14.80;99.90
22065;DHT22;11197;53.110;8.468;2022-10-31T14:52:27;14.70;99.90
22065;DHT22;11197;53.110;8.468;2022-10-31T14:54:54;14.60;99.90
22065;DHT22;11197;53.110;8.468;2022-10-31T14:57:24;14.60;99.90
22065;DHT22;11197;53.110;8.468;2022-10-31T14:59:52;14.60;99.90
22065;DHT22;11197;53.110;8.468;2022-10-31T15:02:30;14.60;99.90
22065;DHT22;11197;53.110;8.468;2022-10-31T15:05:00;14.60;99.90
22065;DHT22;11197;53.110;8.468;2022-10-31T15:07:26;14.60;99.90
22065;DHT22;11197;53.110;8.468;2022-10-31T15:10:03;14.60;99.90
22065;DHT22;11197;53.110;8.468;2022-10-31T15:12:31;14.60;99.90
22065;DHT22;11197;53.110;8.468;2022-10-31T15:14:57;14.60;99.90
22065;DHT22;11197;53.110;8.468;2022-10-31T15:17:24;14.60;99.90
22065;DHT22;11197;53.110;8.468;2022-10-31T15:19:51;14.50;99.90
22065;DHT22;11197;53.110;8.468;2022-10-31T15:22:18;14.50;99.90
22065;DHT22;11197;53.110;8.468;2022-10-31T15:24:44;14.50;99.90
22065;DHT22;11197;53.110;8.468;2022-10-31T15:27:14;14.50;99.90
22065;DHT22;11197;53.110;8.468;2022-10-31T15:29:47;14.50;99.90
22065;DHT22;11197;53.110;8.468;2022-10-31T15:32:27;14.40;99.90
22065;DHT22;11197;53.110;8.468;2022-10-31T15:34:54;14.40;99.90
22065;DHT22;11197;53.110;8.468;2022-10-31T15:37:22;14.40;99.90
22065;DHT22;11197;53.110;8.468;2022-10-31T15:39:49;14.40;99.90
22065;DHT22;11197;53.110;8.468;2022-10-31T15:42:35;14.40;99.90
22065;DHT22;11197;53.110;8.468;2022-10-31T15:47:45;14.30;99.90
22065;DHT22;11197;53.110;8.468;2022-10-31T15:50:19;14.30;99.90
22065;DHT22;11197;53.110;8.468;2022-10-31T15:52:46;14.30;99.90
22065;DHT22;11197;53.110;8.468;2022-10-31T15:55:20;14.30;99.90
22065;DHT22;11197;53.110;8.468;2022-10-31T15:57:48;14.30;99.90
22065;DHT22;11197;53.110;8.468;2022-10-31T16:02:46;14.20;99.90
22065;DHT22;11197;53.110;8.468;2022-10-31T16:05:16;14.30;99.90
22065;DHT22;11197;53.110;8.468;2022-10-31T16:07:49;14.30;99.90
22065;DHT22;11197;53.110;8.468;2022-10-31T16:10:25;14.20;99.90
22065;DHT22;11197;53.110;8.468;2022-10-31T16:12:51;14.20;99.90
22065;DHT22;11197;53.110;8.468;2022-10-31T16:15:18;14.20;99.90
22065;DHT22;11197;53.110;8.468;2022-10-31T16:17:49;14.20;99.90
22065;DHT22;11197;53.110;8.468;2022-10-31T16:20:22;14.20;99.90
22065;DHT22;11197;53.110;8.468;2022-10-31T16:22:50;14.20;99.90
22065;DHT22;11197;53.110;8.468;2022-10-31T16:25:20;14.20;99.90
22065;DHT22;11197;53.110;8.468;2022-10-31T16:27:48;14.10;99.90
22065;DHT22;11197;53.110;8.468;2022-10-31T16:32:59;14.10;99.90
22065;DHT22;11197;53.110;8.468;2022-10-31T16:37:52;14.10;99.90
22065;DHT22;11197;53.110;8.468;2022-10-31T16:40:18;14.10;99.90
22065;DHT22;11197;53.110;8.468;2022-10-31T16:42:44;14.10;99.90
22065;DHT22;11197;53.110;8.468;2022-10-31T16:45:23;14.10;99.90
22065;DHT22;11197;53.110;8.468;2022-10-31T16:47:49;14.10;99.90
22065;DHT22;11197;53.110;8.468;2022-10-31T16:50:24;14.10;99.90
22065;DHT22;11197;53.110;8.468;2022-10-31T16:52:51;14.10;99.90
22065;DHT22;11197;53.110;8.468;2022-10-31T16:55:17;14.00;99.90
22065;DHT22;11197;53.110;8.468;2022-10-31T16:57:46;14.10;99.90
22065;DHT22;11197;53.110;8.468;2022-10-31T17:00:13;14.00;99.90
22065;DHT22;11197;53.110;8.468;2022-10-31T17:02:40;14.00;99.90
22065;DHT22;11197;53.110;8.468;2022-10-31T17:05:08;14.00;99.90
22065;DHT22;11197;53.110;8.468;2022-10-31T17:07:34;14.00;99.90
22065;DHT22;11197;53.110;8.468;2022-10-31T17:09:59;14.20;99.90
22065;DHT22;11197;53.110;8.468;2022-10-31T17:12:25;14.40;99.90
22065;DHT22;11197;53.110;8.468;2022-10-31T17:14:52;14.60;99.90
22065;DHT22;11197;53.110;8.468;2022-10-31T17:17:18;14.70;99.90
22065;DHT22;11197;53.110;8.468;2022-10-31T17:19:43;14.70;99.90
22065;DHT22;11197;53.110;8.468;2022-10-31T17:22:14;14.70;99.90
22065;DHT22;11197;53.110;8.468;2022-10-31T17:24:41;14.60;99.90
22065;DHT22;11197;53.110;8.468;2022-10-31T17:27:12;14.50;99.90
22065;DHT22;11197;53.110;8.468;2022-10-31T17:29:38;14.40;99.90
22065;DHT22;11197;53.110;8.468;2022-10-31T17:32:04;14.40;99.90
22065;DHT22;11197;53.110;8.468;2022-10-31T17:34:30;14.30;99.90
22065;DHT22;11197;53.110;8.468;2022-10-31T17:39:42;14.20;99.90
22065;DHT22;11197;53.110;8.468;2022-10-31T17:42:08;14.10;99.90
22065;DHT22;11197;53.110;8.468;2022-10-31T17:44:34;14.10;99.90
22065;DHT22;11197;53.110;8.468;2022-10-31T17:47:00;14.00;99.90
22065;DHT22;11197;53.110;8.468;2022-10-31T17:49:26;14.00;99.90
22065;DHT22;11197;53.110;8.468;2022-10-31T17:51:52;13.90;99.90
22065;DHT22;11197;53.110;8.468;2022-10-31T17:54:18;13.90;99.90
22065;DHT22;11197;53.110;8.468;2022-10-31T17:56:47;13.90;99.90
22065;DHT22;11197;53.110;8.468;2022-10-31T17:59:13;13.90;99.90
22065;DHT22;11197;53.110;8.468;2022-10-31T18:01:40;13.80;99.90
22065;DHT22;11197;53.110;8.468;2022-10-31T18:04:06;13.90;99.90
22065;DHT22;11197;53.110;8.468;2022-10-31T18:06:32;13.80;99.90
22065;DHT22;11197;53.110;8.468;2022-10-31T18:09:02;13.80;99.90
22065;DHT22;11197;53.110;8.468;2022-10-31T18:11:29;13.80;99.90
22065;DHT22;11197;53.110;8.468;2022-10-31T18:13:55;13.80;99.90
22065;DHT22;11197;53.110;8.468;2022-10-31T18:16:21;13.80;99.90
22065;DHT22;11197;53.110;8.468;2022-10-31T18:18:52;13.70;99.90